Time;durP1;ratioP1;P1;durP2;ratioP2;P2;SDS_P1;SDS_P2;PMS_P1;PMS_P2;Temp;Humidity;BMP_temperature;BMP_pressure;BME280_temperature;BME280_humidity;BME280_pressure;Samples;Min_cycle;Max_cycle;Signal;HPM_P1;HPM_P2
2024/01/08 00:01:56;;;;;;;3.08;2.83;;;1.80;99.90;;;0.24;100.00;101144.28;5004126;28;20082;-80
2024/01/08 00:04:23;;;;;;;3.22;2.92;;;2.70;99.90;;;-0.38;100.00;101051.81;4971682;28;20071;-79
2024/01/08 00:06:51;;;;;;;2.78;2.33;;;3.40;99.90;;;0.39;100.00;101168.06;5004607;28;20108;-79
2024/01/08 00:09:19;;;;;;;3.25;3.00;;;3.50;99.90;;;-0.13;100.00;101091.41;5003080;28;20034;-79
2024/01/08 00:11:47;;;;;;;2.85;2.65;;;3.60;99.90;;;0.18;100.00;101126.84;5003294;28;20033;-79
2024/01/08 00:14:14;;;;;;;3.08;2.75;;;3.90;99.90;;;0.18;100.00;101120.81;5004838;28;20081;-80
2024/01/08 00:16:41;;;;;;;5.10;2.85;;;2.80;99.90;;;0.50;100.00;101190.81;5005282;28;20045;-80
2024/01/08 00:19:12;;;;;;;3.58;3.08;;;2.90;99.90;;;0.11;100.00;101115.44;5004106;28;20046;-79
2024/01/08 00:21:39;;;;;;;3.35;3.05;;;2.40;99.90;;;-0.04;100.00;101083.91;5006282;28;20054;-79
2024/01/08 00:24:07;;;;;;;3.13;2.80;;;1.80;99.90;;;-0.34;100.00;101032.97;5005971;28;20030;-79
2024/01/08 00:26:34;;;;;;;3.10;2.80;;;2.00;99.90;;;-0.14;100.00;101077.56;5022469;28;20050;-79
2024/01/08 00:29:01;;;;;;;2.85;2.63;;;3.10;99.90;;;-0.23;100.00;101061.78;5005838;28;20069;-80
2024/01/08 00:31:29;;;;;;;2.60;2.40;;;3.30;99.90;;;0.59;100.00;101192.81;5016570;28;20047;-80
2024/01/08 00:33:56;;;;;;;3.47;3.17;;;3.60;99.90;;;0.53;100.00;101178.81;4990109;28;20062;-80
2024/01/08 00:36:24;;;;;;;5.95;4.05;;;2.10;99.90;;;0.03;100.00;101092.72;5021757;28;20044;-80
2024/01/08 00:38:51;;;;;;;4.78;3.47;;;1.70;99.90;;;0.32;100.00;101135.06;4990064;28;20042;-79
2024/01/08 00:41:19;;;;;;;2.83;2.63;;;4.30;99.90;;;0.59;100.00;101174.69;5004447;28;20078;-79
2024/01/08 00:43:46;;;;;;;3.75;3.35;;;2.20;99.90;;;0.43;100.00;101145.72;4991095;28;20138;-79
2024/01/08 00:46:14;;;;;;;3.30;3.00;;;2.80;99.90;;;0.63;100.00;101164.47;5004890;28;20046;-80
2024/01/08 00:48:41;;;;;;;3.65;3.08;;;1.30;99.90;;;0.58;100.00;101178.97;5022215;28;20039;-79
2024/01/08 00:51:09;;;;;;;3.55;3.20;;;3.40;99.90;;;-0.03;100.00;101068.44;4997711;28;20043;-79
2024/01/08 00:53:37;;;;;;;3.42;3.03;;;2.20;99.90;;;0.01;100.00;101066.81;5003402;28;20058;-80
2024/01/08 00:56:04;;;;;;;4.07;3.67;;;3.20;99.90;;;0.09;100.00;101095.53;5000945;28;20058;-79
2024/01/08 00:58:31;;;;;;;3.65;3.10;;;2.10;99.90;;;0.63;100.00;101172.22;4985677;28;20114;-80
2024/01/08 01:00:58;;;;;;;3.13;2.85;;;2.20;99.90;;;0.36;100.00;101148.94;5001429;28;20070;-79
2024/01/08 01:03:26;;;;;;;3.75;2.78;;;2.10;99.90;;;0.15;100.00;101100.88;5017749;28;20042;-79
2024/01/08 01:05:55;;;;;;;2.95;2.75;;;3.40;99.90;;;0.62;100.00;101178.22;4985323;28;20520;-79
2024/01/08 01:08:22;;;;;;;3.88;3.10;;;2.20;99.90;;;0.25;100.00;101117.56;4999049;28;20050;-79
2024/01/08 01:10:49;;;;;;;3.65;2.65;;;2.10;99.90;;;0.30;100.00;101120.28;4980572;28;20058;-79
2024/01/08 01:13:16;;;;;;;3.42;3.13;;;2.10;99.90;;;0.03;100.00;101096.22;4984415;28;20042;-80
2024/01/08 01:15:44;;;;;;;3.13;2.83;;;2.70;99.90;;;-0.34;100.00;101018.34;4985624;28;20061;-79
2024/01/08 01:18:11;;;;;;;4.30;3.28;;;2.00;99.90;;;-0.25;100.00;101038.44;5017063;28;20085;-79
2024/01/08 01:20:40;;;;;;;4.07;2.80;;;2.10;99.90;;;0.48;100.00;101158.81;4985594;28;20085;-80
2024/01/08 01:23:07;;;;;;;3.22;2.92;;;3.90;99.90;;;0.11;100.00;101096.44;5016343;28;20089;-79
2024/01/08 01:25:34;;;;;;;2.90;2.70;;;3.00;99.90;;;-0.33;100.00;101035.63;4999463;28;20047;-79
2024/01/08 01:28:01;;;;;;;4.45;3.35;;;3.70;99.90;;;0.40;100.00;101138.75;4982376;28;20042;-79
2024/01/08 01:30:28;;;;;;;3.38;2.95;;;3.50;99.90;;;0.70;100.00;101181.94;4982112;28;20061;-80
2024/01/08 01:32:56;;;;;;;3.13;2.83;;;2.10;99.90;;;-0.16;100.00;101046.50;5014761;28;20065;-78
2024/01/08 01:35:23;;;;;;;3.67;3.03;;;3.40;99.90;;;0.39;100.00;101120.56;4997075;28;20070;-82
2024/01/08 01:37:50;;;;;;;3.10;2.85;;;2.20;99.90;;;-0.14;100.00;101056.88;4977141;28;20126;-80
2024/01/08 01:40:18;;;;;;;3.70;3.08;;;3.00;99.90;;;0.23;100.00;101109.75;4986151;28;20050;-81
2024/01/08 01:42:48;;;;;;;3.00;2.70;;;3.60;99.90;;;0.12;100.00;101073.19;4981450;28;20070;-79
2024/01/08 01:45:15;;;;;;;3.15;2.95;;;2.10;99.90;;;0.62;100.00;101162.69;5012715;28;20528;-80
2024/01/08 01:47:42;;;;;;;4.60;3.45;;;2.00;99.90;;;0.48;100.00;101149.31;5013727;28;20046;-80
2024/01/08 01:50:11;;;;;;;3.10;2.80;;;2.50;99.90;;;0.68;100.00;101191.38;5003503;28;20046;-80
2024/01/08 01:52:40;;;;;;;3.83;3.33;;;2.10;99.90;;;0.50;100.00;101139.88;4991739;28;20042;-80
2024/01/08 01:55:10;;;;;;;3.80;3.40;;;3.40;99.90;;;-0.07;100.00;101040.72;4979409;28;20054;-79
2024/01/08 01:57:38;;;;;;;3.83;3.05;;;2.70;99.90;;;0.60;100.00;101169.53;4994323;28;20050;-79
2024/01/08 02:00:06;;;;;;;3.58;3.17;;;3.60;99.90;;;0.71;100.00;101175.06;4979254;28;20500;-79
2024/01/08 02:02:40;;;;;;;5.18;3.03;;;2.20;99.90;;;0.66;100.00;101161.06;4995192;28;20614;-79
2024/01/08 02:05:09;;;;;;;3.22;2.92;;;2.30;99.90;;;0.60;100.00;101148.81;4994736;28;20051;-80
2024/01/08 02:07:36;;;;;;;2.92;2.67;;;2.30;99.90;;;0.65;100.00;101164.50;4975285;28;20043;-80
2024/01/08 02:10:04;;;;;;;4.53;3.47;;;3.80;99.90;;;0.69;100.00;101162.03;4988933;28;20039;-80
2024/01/08 02:12:31;;;;;;;4.03;3.13;;;1.00;99.90;;;0.66;100.00;101151.59;4992882;28;20129;-79
2024/01/08 02:15:02;;;;;;;4.38;3.28;;;2.20;1.00;;;-0.08;100.00;101046.72;4976145;28;20153;-80
2024/01/08 02:17:29;;;;;;;3.78;3.03;;;3.40;1.00;;;0.73;100.00;101172.47;4979430;28;20102;-79
2024/01/08 02:19:56;;;;;;;3.40;3.00;;;3.10;1.00;;;0.07;100.00;101059.25;4989997;28;20077;-79
2024/01/08 02:22:24;;;;;;;3.47;3.15;;;3.50;1.00;;;-0.29;100.00;101008.16;4996287;28;20093;-79
2024/01/08 02:24:51;;;;;;;3.50;3.17;;;2.30;1.00;;;0.61;100.00;101147.09;4995669;28;20046;-79
2024/01/08 02:27:18;;;;;;;3.85;3.45;;;2.20;1.00;;;0.33;100.00;101087.63;4976336;28;20050;-80
2024/01/08 02:29:45;;;;;;;3.17;2.88;;;3.50;99.90;;;0.49;100.00;101132.09;4992084;28;20506;-79
2024/01/08 02:32:13;;;;;;;3.38;3.03;;;2.00;99.90;;;0.58;100.00;101139.25;4998114;28;20074;-80
2024/01/08 02:34:40;;;;;;;3.28;2.88;;;2.20;1.00;;;0.52;100.00;101127.00;4959681;28;1154493;-80
2024/01/08 02:37:08;;;;;;;4.10;3.15;;;2.50;1.00;;;-0.21;100.00;100998.03;4984170;28;20054;-79
2024/01/08 02:39:35;;;;;;;3.35;3.05;;;2.40;1.00;;;0.63;100.00;101150.63;4985198;28;20042;-79
2024/01/08 02:42:02;;;;;;;3.50;3.17;;;2.20;1.00;;;0.52;100.00;101145.13;5000428;28;20050;-80
2024/01/08 02:44:29;;;;;;;4.85;2.95;;;2.30;1.00;;;0.06;100.00;101048.81;4985114;28;20106;-80
2024/01/08 02:46:56;;;;;;;3.50;3.10;;;2.00;1.00;;;0.06;100.00;101059.19;5012366;28;20378;-80
2024/01/08 02:49:23;;;;;;;3.30;3.00;;;3.40;1.00;;;-0.37;100.00;100997.56;4995260;28;20407;-81
2024/01/08 02:51:50;;;;;;;4.95;3.05;;;1.90;1.00;;;0.45;100.00;101120.75;5007047;28;20039;-80
2024/01/08 02:54:18;;;;;;;3.33;3.00;;;3.10;1.00;;;-0.34;100.00;101015.75;5004774;28;20046;-81
2024/01/08 02:56:45;;;;;;;3.20;2.90;;;4.00;1.00;;;0.67;100.00;101163.72;5001580;28;20266;-80
2024/01/08 02:59:12;;;;;;;3.13;2.83;;;3.40;1.00;;;0.04;100.00;101072.09;4995780;28;20074;-80
2024/01/08 03:01:39;;;;;;;3.28;2.53;;;0.70;1.00;;;0.20;100.00;101098.44;5001586;28;20619;-79
2024/01/08 03:04:06;;;;;;;3.35;2.50;;;2.00;1.00;;;0.66;100.00;101167.13;4993141;28;20493;-79
2024/01/08 03:06:33;;;;;;;2.78;2.58;;;2.10;1.00;;;0.56;100.00;101150.44;4988268;28;20042;-79
2024/01/08 03:09:00;;;;;;;3.22;2.92;;;2.60;1.00;;;0.58;100.00;101165.16;4975656;28;20047;-80
2024/01/08 03:11:28;;;;;;;2.70;2.50;;;2.10;1.00;;;0.50;100.00;101164.91;4978001;28;20050;-79
2024/01/08 03:13:56;;;;;;;4.53;3.17;;;2.10;1.00;;;0.02;100.00;101071.16;4993058;28;20054;-79
2024/01/08 03:16:23;;;;;;;2.65;2.45;;;3.60;1.00;;;0.03;100.00;101077.22;4949579;28;20054;-80
2024/01/08 03:18:50;;;;;;;4.00;2.95;;;3.10;1.00;;;-0.03;100.00;101062.38;4973454;28;20054;-79
2024/01/08 03:21:17;;;;;;;3.13;2.50;;;1.80;1.00;;;0.58;100.00;101167.75;4977140;28;20042;-80
2024/01/08 03:23:44;;;;;;;3.33;2.30;;;2.20;99.90;;;0.37;100.00;101141.25;4967283;28;20070;-80
2024/01/08 03:26:12;;;;;;;3.25;2.53;;;3.90;99.90;;;0.55;100.00;101184.94;4963952;28;20078;-80
2024/01/08 03:28:39;;;;;;;3.05;2.60;;;2.20;99.90;;;-0.18;100.00;101065.38;4988046;28;20068;-80
2024/01/08 03:31:09;;;;;;;2.40;2.20;;;2.10;99.90;;;0.38;100.00;101168.88;4978845;28;20078;-81
2024/01/08 03:33:36;;;;;;;2.45;2.25;;;2.10;99.90;;;0.34;100.00;101181.69;4977807;28;20596;-80
2024/01/08 03:36:09;;;;;;;2.50;2.20;;;3.60;99.90;;;0.18;100.00;101129.44;4992691;28;20043;-80
2024/01/08 03:38:40;;;;;;;2.95;2.42;;;2.10;99.90;;;0.26;100.00;101146.09;4990439;28;20042;-79
2024/01/08 03:41:08;;;;;;;2.95;2.15;;;2.00;99.90;;;-0.31;100.00;101056.38;4988602;28;20050;-80
2024/01/08 03:43:35;;;;;;;2.45;2.25;;;2.10;99.90;;;0.01;100.00;101105.66;4970912;28;20078;-80
2024/01/08 03:46:02;;;;;;;2.72;2.53;;;2.90;99.90;;;-0.36;100.00;101073.41;4986763;28;20168;-81
2024/01/08 03:48:29;;;;;;;2.78;2.55;;;1.90;99.90;;;-0.02;100.00;101111.59;4971627;28;20042;-82
2024/01/08 03:50:57;;;;;;;3.00;2.55;;;2.70;99.90;;;-0.73;100.00;100993.84;4983913;28;20047;-81
2024/01/08 03:53:27;;;;;;;3.33;3.03;;;1.60;99.90;;;-0.55;100.00;101038.31;4987016;28;20050;-80
2024/01/08 03:55:54;;;;;;;2.90;2.70;;;2.50;99.90;;;-0.23;100.00;101061.78;4970386;28;20050;-81
2024/01/08 03:58:21;;;;;;;3.83;2.08;;;2.70;99.90;;;-0.59;100.00;101019.28;4987961;28;20042;-80
2024/01/08 04:00:48;;;;;;;3.50;2.28;;;1.80;99.90;;;0.30;100.00;101151.38;4971436;28;20141;-80
2024/01/08 04:03:15;;;;;;;4.40;2.58;;;1.90;99.90;;;-0.15;100.00;101094.81;4970988;28;20145;-81
2024/01/08 04:05:42;;;;;;;2.95;2.60;;;1.70;99.90;;;-0.47;100.00;101045.53;4987674;28;20038;-80
2024/01/08 04:08:09;;;;;;;4.03;2.50;;;1.60;99.90;;;-0.19;100.00;101087.75;4970252;28;20057;-81
2024/01/08 04:10:37;;;;;;;2.78;2.55;;;1.50;99.90;;;-0.58;100.00;101039.13;5004124;28;20548;-79
2024/01/08 04:13:05;;;;;;;3.25;2.97;;;1.60;99.90;;;0.20;100.00;101145.88;4968853;28;20043;-81
2024/01/08 04:15:32;;;;;;;2.55;2.28;;;1.60;99.90;;;-0.51;100.00;101040.19;4970878;28;20047;-80
2024/01/08 04:17:59;;;;;;;2.80;2.60;;;1.30;99.90;;;0.16;100.00;101148.31;4971256;28;20042;-81
2024/01/08 04:20:26;;;;;;;3.05;2.40;;;1.70;99.90;;;0.09;100.00;101149.88;4982185;28;20050;-81
2024/01/08 04:22:53;;;;;;;2.63;2.42;;;2.90;99.90;;;-0.67;100.00;101037.13;4962860;28;20055;-81
2024/01/08 04:25:21;;;;;;;2.80;2.20;;;2.40;99.90;;;0.25;100.00;101196.13;4975344;28;20042;-80
2024/01/08 04:27:48;;;;;;;2.38;2.15;;;3.70;99.90;;;-0.51;100.00;101074.69;4991036;28;20180;-80
2024/01/08 04:30:15;;;;;;;2.70;2.08;;;3.50;99.90;;;-0.36;100.00;101089.81;4991428;28;20242;-81
2024/01/08 04:32:42;;;;;;;2.50;2.30;;;3.10;99.90;;;0.10;100.00;101167.16;4976218;28;20050;-81
2024/01/08 04:35:10;;;;;;;3.95;2.45;;;1.80;99.90;;;0.08;100.00;101141.22;4989765;28;20121;-80
2024/01/08 04:37:37;;;;;;;2.95;2.42;;;1.90;99.90;;;0.30;100.00;101183.28;4993241;28;20494;-81
2024/01/08 04:40:05;;;;;;;3.08;2.78;;;1.70;99.90;;;0.20;100.00;101165.72;4992681;28;20545;-81
2024/01/08 04:42:32;;;;;;;2.55;2.35;;;1.80;99.90;;;0.23;100.00;101187.38;4977339;28;20045;-82
2024/01/08 04:44:59;;;;;;;3.80;2.90;;;1.90;99.90;;;0.12;100.00;101158.59;4973403;28;20061;-81
2024/01/08 04:47:26;;;;;;;3.15;2.85;;;3.30;99.90;;;0.15;100.00;101175.94;4976915;28;20046;-82
2024/01/08 04:49:53;;;;;;;2.60;2.40;;;1.90;99.90;;;0.05;100.00;101148.00;4989942;28;20505;-80
2024/01/08 04:52:20;;;;;;;3.17;2.75;;;3.30;99.90;;;-0.41;100.00;101098.25;4972962;28;20148;-79
2024/01/08 04:54:49;;;;;;;3.45;2.65;;;3.10;99.90;;;-0.50;100.00;101088.50;4963140;28;20042;-78
2024/01/08 04:57:19;;;;;;;3.83;2.78;;;4.30;99.90;;;0.10;100.00;101195.63;4984207;28;20560;-80
2024/01/08 04:59:46;;;;;;;3.40;3.05;;;3.70;99.90;;;-0.18;100.00;101133.50;4985562;28;20043;-80
2024/01/08 05:02:13;;;;;;;3.38;2.60;;;2.50;99.90;;;-0.60;100.00;101059.75;5004868;28;20051;-80
2024/01/08 05:04:43;;;;;;;3.47;3.13;;;1.50;99.90;;;-0.61;100.00;101057.13;4990333;28;20070;-79
2024/01/08 05:07:12;;;;;;;3.42;2.67;;;2.50;99.90;;;0.01;100.00;101180.69;4973484;28;20038;-79
2024/01/08 05:09:42;;;;;;;3.13;2.80;;;2.50;99.90;;;0.26;100.00;101221.16;4991229;28;20034;-82
2024/01/08 05:12:09;;;;;;;;;;;1.40;99.90;;;-0.08;100.00;101152.81;4968200;28;20050;-79
2024/01/08 05:14:36;;;;;;;2.97;2.67;;;1.40;99.90;;;-0.31;100.00;101134.81;4987896;28;19968;-79
2024/01/08 05:17:06;;;;;;;2.92;2.53;;;2.40;99.90;;;-0.05;100.00;101168.41;4995857;28;20043;-80
2024/01/08 05:19:34;;;;;;;3.05;2.75;;;2.60;99.90;;;0.03;100.00;101188.47;4987511;28;20046;-78
2024/01/08 05:22:01;;;;;;;3.00;2.58;;;2.80;99.90;;;-0.17;100.00;101160.25;4976073;28;20053;-79
2024/01/08 05:24:28;;;;;;;3.75;2.70;;;1.70;99.90;;;-0.73;100.00;101055.00;4986980;28;20118;-80
2024/01/08 05:26:55;;;;;;;2.72;2.33;;;1.80;99.90;;;0.21;100.00;101201.13;4954860;28;20047;-79
2024/01/08 05:29:22;;;;;;;3.00;2.78;;;1.70;99.90;;;0.23;100.00;101212.41;4956517;28;20533;-79
2024/01/08 05:31:49;;;;;;;3.60;2.95;;;3.40;99.90;;;0.11;100.00;101210.31;4977362;28;20153;-77
2024/01/08 05:34:17;;;;;;;2.90;2.60;;;1.80;99.90;;;0.00;100.00;101178.94;4969429;28;20082;-78
2024/01/08 05:36:45;;;;;;;2.95;2.50;;;1.90;99.90;;;0.08;100.00;101194.66;4956745;28;20399;-78
2024/01/08 05:39:12;;;;;;;3.72;3.08;;;1.80;99.90;;;0.08;100.00;101197.25;4975786;28;20129;-79
2024/01/08 05:41:42;;;;;;;5.15;2.88;;;3.30;99.90;;;0.26;100.00;101212.50;4945838;28;20047;-78
2024/01/08 05:44:09;;;;;;;3.00;2.80;;;1.70;99.90;;;0.14;100.00;101197.47;4951408;28;20047;-77
2024/01/08 05:46:44;;;;;;;3.28;2.80;;;1.80;99.90;;;0.19;100.00;101207.97;4969156;28;20064;-79
2024/01/08 05:49:11;;;;;;;3.85;2.33;;;1.60;99.90;;;0.20;100.00;101214.91;4937953;28;20107;-78
2024/01/08 05:51:39;;;;;;;2.85;2.60;;;1.70;99.90;;;0.07;100.00;101195.50;4964442;28;20049;-78
2024/01/08 05:54:06;;;;;;;3.70;3.20;;;2.20;99.90;;;0.14;100.00;101202.66;4967151;28;20494;-80
2024/01/08 05:56:33;;;;;;;3.85;2.63;;;1.70;99.90;;;0.10;100.00;101195.63;4981331;28;20073;-79
2024/01/08 05:59:01;;;;;;;3.65;3.10;;;1.90;99.90;;;0.01;100.00;101197.91;4972839;28;20078;-81
2024/01/08 06:01:28;;;;;;;3.50;3.20;;;1.90;99.90;;;0.33;100.00;101224.84;4984255;28;20055;-78
2024/01/08 06:03:55;;;;;;;3.85;3.45;;;2.70;99.90;;;0.22;100.00;101201.16;4971025;28;20633;-79
2024/01/08 06:06:22;;;;;;;3.83;3.20;;;3.80;99.90;;;0.35;100.00;101223.16;4969501;28;20053;-79
2024/01/08 06:08:49;;;;;;;3.80;2.90;;;1.80;99.90;;;0.29;100.00;101222.94;4943848;28;20057;-79
2024/01/08 06:11:16;;;;;;;3.33;3.03;;;1.90;99.90;;;-0.68;100.00;101093.91;4954133;28;20053;-79
2024/01/08 06:13:44;;;;;;;3.75;2.80;;;1.70;99.90;;;-0.72;100.00;101080.00;4931283;28;20138;-80
2024/01/08 06:16:17;;;;;;;4.22;3.30;;;1.80;99.90;;;0.13;100.00;101237.13;4951791;28;20490;-79
2024/01/08 06:18:44;;;;;;;3.65;3.10;;;1.70;99.90;;;-0.77;100.00;101090.22;4973977;28;20057;-80
2024/01/08 06:21:12;;;;;;;3.40;3.10;;;1.40;99.90;;;-0.45;100.00;101136.94;4956711;28;20502;-80
2024/01/08 06:23:39;;;;;;;3.35;3.05;;;3.10;99.90;;;-0.07;100.00;101210.59;4955372;28;20038;-79
2024/01/08 06:26:07;;;;;;;3.25;2.85;;;2.80;99.90;;;-0.37;100.00;101175.09;4972879;28;20122;-79
2024/01/08 06:28:34;;;;;;;4.57;3.05;;;2.70;99.90;;;0.08;100.00;101224.03;4971801;28;20035;-79
2024/01/08 06:31:04;;;;;;;3.60;3.30;;;1.70;99.90;;;-0.03;100.00;101199.50;4957192;28;20054;-79
2024/01/08 06:33:35;;;;;;;2.90;2.67;;;2.30;99.90;;;0.06;100.00;101215.34;4945742;28;20055;-80
2024/01/08 06:36:05;;;;;;;3.70;3.10;;;3.30;99.90;;;0.14;100.00;101224.22;4953491;28;20078;-79
2024/01/08 06:38:32;;;;;;;3.58;3.28;;;1.70;99.90;;;0.19;100.00;101223.50;4966675;28;20119;-80
2024/01/08 06:40:59;;;;;;;3.72;3.33;;;1.90;99.90;;;-0.12;100.00;101163.84;4952654;28;20059;-79
2024/01/08 06:43:27;;;;;;;3.40;3.10;;;1.80;99.90;;;0.10;100.00;101199.06;4966835;28;20099;-80
2024/01/08 06:45:56;;;;;;;3.28;2.88;;;1.90;99.90;;;0.18;100.00;101214.00;4949806;29;20047;-80
2024/01/08 06:48:23;;;;;;;3.00;2.75;;;1.80;99.90;;;0.13;100.00;101206.06;4970603;28;20043;-79
2024/01/08 06:50:51;;;;;;;4.32;3.78;;;1.80;99.90;;;0.07;100.00;101203.25;4968515;28;20070;-80
2024/01/08 06:53:18;;;;;;;3.38;2.97;;;1.60;99.90;;;0.20;100.00;101209.75;4972769;28;20525;-80
2024/01/08 06:55:47;;;;;;;3.13;2.83;;;3.40;99.90;;;0.08;100.00;101217.97;4950696;28;20149;-82
2024/01/08 06:58:18;;;;;;;3.08;2.78;;;1.80;99.90;;;0.13;100.00;101221.59;4940190;28;20055;-79
2024/01/08 07:00:47;;;;;;;4.40;3.20;;;1.90;99.90;;;0.20;100.00;101246.84;4969237;28;20042;-81
2024/01/08 07:03:14;;;;;;;3.20;2.90;;;1.80;99.90;;;-0.15;100.00;101187.94;4975021;28;20118;-80
2024/01/08 07:05:42;;;;;;;4.03;3.55;;;1.70;99.90;;;0.03;100.00;101217.84;4971517;28;20513;-81
2024/01/08 07:08:13;;;;;;;3.72;3.42;;;1.90;99.90;;;-0.23;100.00;101185.94;4966777;28;20051;-79
2024/01/08 07:10:41;;;;;;;4.20;3.80;;;1.40;99.90;;;-0.14;100.00;101217.25;4966300;28;20603;-79
2024/01/08 07:13:08;;;;;;;3.78;3.38;;;1.50;99.90;;;0.06;100.00;101224.78;4974139;28;20054;-79
2024/01/08 07:15:44;;;;;;;3.97;3.35;;;1.60;99.90;;;-0.05;100.00;101207.22;4945464;28;20035;-79
2024/01/08 07:18:12;;;;;;;3.75;3.20;;;1.80;99.90;;;-0.74;100.00;101095.47;4956088;28;20520;-80
2024/01/08 07:20:43;;;;;;;3.90;3.17;;;2.80;99.90;;;0.18;100.00;101232.97;4955323;28;20035;-80
2024/01/08 07:23:12;;;;;;;4.65;3.50;;;3.50;99.90;;;0.13;100.00;101211.25;4973878;28;20043;-80
2024/01/08 07:25:43;;;;;;;3.80;3.08;;;1.80;99.90;;;0.13;100.00;101208.66;4989961;28;20047;-80
2024/01/08 07:28:11;;;;;;;3.13;2.83;;;2.00;99.90;;;0.25;100.00;101227.19;4989393;28;20058;-80
2024/01/08 07:30:38;;;;;;;2.58;2.38;;;1.90;99.90;;;-0.03;100.00;101194.31;4961557;28;20111;-81
2024/01/08 07:33:06;;;;;;;3.47;2.78;;;2.80;99.90;;;0.17;100.00;101231.22;4954732;28;20154;-80
2024/01/08 07:35:34;;;;;;;3.15;2.83;;;1.90;99.90;;;0.34;100.00;101256.75;4954283;28;20042;-80
2024/01/08 07:38:01;;;;;;;3.35;3.05;;;1.70;99.90;;;0.09;100.00;101233.53;4968376;28;20153;-81
2024/01/08 07:40:29;;;;;;;3.67;3.38;;;2.30;99.90;;;0.27;100.00;101256.56;4969944;28;20047;-79
2024/01/08 07:42:57;;;;;;;3.30;3.00;;;2.20;99.90;;;-0.40;100.00;101151.72;4954004;28;20054;-80
2024/01/08 07:45:26;;;;;;;3.53;3.08;;;1.60;99.90;;;0.10;100.00;101231.84;4973208;28;20049;-80
2024/01/08 07:47:56;;;;;;;3.38;3.08;;;1.70;99.90;;;0.11;100.00;101236.19;4989360;28;20491;-79
2024/01/08 07:50:24;;;;;;;3.50;3.20;;;1.80;99.90;;;0.20;100.00;101240.78;4937158;28;20043;-79
2024/01/08 07:52:51;;;;;;;3.20;2.90;;;1.80;99.90;;;0.27;100.00;101272.09;4989885;28;20051;-79
2024/01/08 07:55:19;;;;;;;4.63;3.63;;;2.90;99.90;;;0.22;100.00;101259.84;4947438;28;20055;-79
2024/01/08 07:57:47;;;;;;;3.67;3.28;;;1.80;99.90;;;0.33;100.00;101261.06;4966894;28;20043;-80
2024/01/08 08:00:15;;;;;;;3.85;3.17;;;2.80;99.90;;;0.35;100.00;101284.41;4954483;28;20131;-79
2024/01/08 08:02:42;;;;;;;4.25;3.28;;;1.80;99.90;;;-0.15;100.00;101207.75;4958842;28;20043;-80
2024/01/08 08:05:09;;;;;;;3.47;3.17;;;3.60;99.90;;;0.30;100.00;101278.22;4966494;28;20114;-80
2024/01/08 08:07:38;;;;;;;3.88;3.15;;;3.20;99.90;;;0.07;100.00;101239.50;4973550;28;20050;-79
2024/01/08 08:10:06;;;;;;;3.88;3.47;;;1.70;99.90;;;-0.39;100.00;101177.66;4971008;28;20055;-80
2024/01/08 08:12:36;;;;;;;3.75;2.85;;;1.90;99.90;;;0.17;100.00;101258.81;4955102;28;20090;-80
2024/01/08 08:15:04;;;;;;;3.58;3.13;;;1.70;99.90;;;0.19;100.00;101262.34;4956772;28;20051;-80
2024/01/08 08:17:32;;;;;;;4.65;3.42;;;1.80;99.90;;;-0.68;100.00;101123.25;4951662;28;20243;-78
2024/01/08 08:19:59;;;;;;;3.22;2.92;;;1.80;99.90;;;0.11;100.00;101267.25;4952051;28;20055;-78
2024/01/08 08:22:26;;;;;;;4.10;3.35;;;1.60;99.90;;;0.09;100.00;101253.38;4968930;28;20066;-78
2024/01/08 08:24:54;;;;;;;4.88;4.43;;;4.20;99.90;;;0.19;100.00;101262.34;4964674;28;20051;-80
2024/01/08 08:27:42;;;;;;;4.03;3.63;;;1.80;99.90;;;0.18;100.00;101266.63;4945735;28;20027;-79
2024/01/08 08:30:12;;;;;;;;;;;3.20;99.90;;;0.08;100.00;101254.19;4953751;28;20074;-78
2024/01/08 08:32:39;;;;;;;4.22;3.53;;;1.80;99.90;;;0.24;100.00;101281.47;4966624;28;19922;-79
2024/01/08 08:35:08;;;;;;;4.38;3.47;;;2.90;99.90;;;-0.06;100.00;101231.34;4968954;28;20043;-79
2024/01/08 08:37:36;;;;;;;3.95;3.40;;;1.80;99.90;;;0.20;100.00;101270.13;4955631;28;20062;-79
2024/01/08 08:40:18;;;;;;;3.85;3.45;;;2.00;99.90;;;0.25;100.00;101285.81;4969262;28;20043;-79
2024/01/08 08:42:46;;;;;;;5.88;3.38;;;1.80;99.90;;;0.30;100.00;101292.03;4955540;28;20042;-79
2024/01/08 08:45:17;;;;;;;4.70;3.83;;;1.80;99.90;;;-0.34;100.00;101193.31;4969790;28;20102;-79
2024/01/08 08:47:45;;;;;;;4.32;3.70;;;1.80;99.90;;;0.23;100.00;101287.47;4985902;28;20505;-79
2024/01/08 08:50:13;;;;;;;4.40;3.95;;;1.70;99.90;;;0.26;100.00;101285.88;4964080;28;20042;-80
2024/01/08 08:52:40;;;;;;;3.97;3.67;;;1.60;99.90;;;0.39;100.00;101315.63;4964993;28;20493;-81
2024/01/08 08:55:08;;;;;;;4.45;4.05;;;1.90;99.90;;;0.33;100.00;101305.09;4944162;28;20766;-81
2024/01/08 08:57:37;;;;;;;4.15;3.70;;;1.80;99.90;;;0.25;100.00;101285.81;4949670;28;20055;-80
2024/01/08 09:00:08;;;;;;;5.25;3.70;;;1.90;99.90;;;0.29;100.00;101292.84;4954605;28;20057;-81
2024/01/08 09:02:36;;;;;;;5.45;4.25;;;2.00;99.90;;;0.44;100.00;101310.63;4964572;28;20053;-79
2024/01/08 09:05:05;;;;;;;4.03;3.60;;;2.80;99.90;;;0.22;100.00;101277.97;4962685;28;20046;-80
2024/01/08 09:07:33;;;;;;;4.85;4.22;;;2.00;99.90;;;0.38;100.00;101311.28;4992193;28;20461;-80
2024/01/08 09:10:01;;;;;;;4.68;3.95;;;2.00;99.90;;;0.45;100.00;101333.09;4971648;28;20054;-80
2024/01/08 09:12:28;;;;;;;4.55;4.05;;;3.10;99.90;;;0.46;100.00;101337.44;4962591;28;20074;-79
2024/01/08 09:14:55;;;;;;;4.63;3.47;;;1.90;99.90;;;0.23;100.00;101296.13;4977281;28;20062;-77
2024/01/08 09:17:23;;;;;;;6.28;4.35;;;1.90;99.90;;;0.21;100.00;101315.88;4953615;28;20051;-78
2024/01/08 09:19:52;;;;;;;4.57;3.83;;;1.80;99.90;;;0.24;100.00;101316.03;4968487;28;20046;-78
2024/01/08 09:22:24;;;;;;;5.10;4.03;;;1.80;99.90;;;0.23;100.00;101334.94;4965032;28;20055;-79
2024/01/08 09:24:52;;;;;;;4.20;3.80;;;1.70;99.90;;;0.16;100.00;101325.22;4933464;29;20063;-79
2024/01/08 09:27:19;;;;;;;4.10;3.63;;;1.60;99.90;;;0.06;100.00;101307.59;4935213;28;20150;-78
2024/01/08 09:29:46;;;;;;;5.18;4.40;;;1.90;99.90;;;0.02;100.00;101298.88;4966789;28;20050;-78
2024/01/08 09:32:16;;;;;;;5.30;4.50;;;1.70;99.90;;;0.08;100.00;101324.06;4951877;28;20653;-79
2024/01/08 09:34:43;;;;;;;;;;;1.10;94.90;;;0.18;100.00;101333.91;4958897;28;20047;-79
2024/01/08 09:37:11;;;;;;;6.93;5.53;;;1.80;99.90;;;0.21;100.00;101330.56;4951999;28;19961;-78
2024/01/08 09:39:38;;;;;;;6.70;4.93;;;1.80;99.90;;;0.04;100.00;101320.50;4945387;28;20071;-80
2024/01/08 09:42:07;;;;;;;6.85;4.82;;;1.90;96.90;;;0.19;100.00;101338.25;4954558;28;20051;-80
2024/01/08 09:44:40;;;;;;;8.07;5.60;;;1.90;99.90;;;0.21;100.00;101339.19;4966363;28;20035;-79
2024/01/08 09:47:07;;;;;;;6.15;5.15;;;1.70;99.90;;;0.12;100.00;101325.94;4950125;28;20113;-79
2024/01/08 09:49:35;;;;;;;7.85;5.25;;;1.80;99.90;;;-0.01;100.00;101289.28;4962507;28;20042;-79
2024/01/08 09:52:04;;;;;;;5.55;4.55;;;1.80;99.90;;;0.24;100.00;101333.25;4952218;28;20070;-79
2024/01/08 09:54:33;;;;;;;5.28;3.92;;;1.80;96.60;;;0.35;100.00;101354.31;4951665;28;20077;-78
2024/01/08 09:57:00;;;;;;;6.20;4.50;;;1.90;99.90;;;0.36;100.00;101345.72;4951307;28;20502;-77
2024/01/08 09:59:27;;;;;;;7.75;4.68;;;1.80;97.30;;;0.46;100.00;101357.25;4967263;28;20120;-77
2024/01/08 10:01:56;;;;;;;5.55;4.57;;;2.00;99.90;;;0.44;100.00;101359.81;4967273;28;20047;-77
2024/01/08 10:04:26;;;;;;;4.30;3.90;;;3.20;73.00;;;0.33;100.00;101348.22;4967666;28;20047;-78
2024/01/08 10:07:07;;;;;;;6.45;4.75;;;1.90;95.80;;;0.35;100.00;101350.03;4952515;28;20658;-78
2024/01/08 10:09:35;;;;;;;5.65;4.90;;;2.00;40.20;;;0.33;100.00;101348.22;4960958;28;20113;-76
2024/01/08 10:12:04;;;;;;;5.30;4.40;;;2.00;53.90;;;0.14;100.00;101327.75;4948443;28;20517;-77
2024/01/08 10:14:34;;;;;;;5.60;4.57;;;1.90;51.60;;;0.36;100.00;101358.66;4963491;28;20040;-77
2024/01/08 10:17:02;;;;;;;4.35;3.80;;;1.90;77.60;;;0.19;100.00;101327.91;4950304;28;20050;-79
2024/01/08 10:19:30;;;;;;;5.30;4.13;;;1.70;65.80;;;0.37;100.00;101350.06;4952182;28;20155;-79
2024/01/08 10:22:12;;;;;;;5.32;4.10;;;2.00;73.80;;;0.46;100.00;101357.25;4949807;28;20059;-80